sensor_id;sensor_type;location;lat;lon;timestamp;temperature;humidity
33580;DHT22;19909;43.644;-79.438;2024-03-23T00:54:56;23.20;25.80
33580;DHT22;19909;43.644;-79.438;2024-03-23T00:57:23;23.30;25.80
33580;DHT22;19909;43.644;-79.438;2024-03-23T00:59:49;23.40;25.70
33580;DHT22;19909;43.644;-79.438;2024-03-23T01:02:15;23.50;25.60
33580;DHT22;19909;43.644;-79.438;2024-03-23T01:04:42;23.70;25.50
33580;DHT22;19909;43.644;-79.438;2024-03-23T01:07:08;23.70;25.30
33580;DHT22;19909;43.644;-79.438;2024-03-23T01:09:36;23.70;25.70
33580;DHT22;19909;43.644;-79.438;2024-03-23T01:12:05;23.60;25.20
33580;DHT22;19909;43.644;-79.438;2024-03-23T01:14:33;23.50;25.10
33580;DHT22;19909;43.644;-79.438;2024-03-23T01:17:02;23.40;25.10
33580;DHT22;19909;43.644;-79.438;2024-03-23T01:19:28;23.30;25.10
33580;DHT22;19909;43.644;-79.438;2024-03-23T01:21:54;23.20;25.10
33580;DHT22;19909;43.644;-79.438;2024-03-23T01:24:20;23.10;25.10
33580;DHT22;19909;43.644;-79.438;2024-03-23T01:26:47;23.00;25.20
33580;DHT22;19909;43.644;-79.438;2024-03-23T01:29:13;22.90;25.20
33580;DHT22;19909;43.644;-79.438;2024-03-23T01:31:39;22.90;25.20
33580;DHT22;19909;43.644;-79.438;2024-03-23T01:34:06;22.90;25.20
33580;DHT22;19909;43.644;-79.438;2024-03-23T01:36:32;22.90;25.30
33580;DHT22;19909;43.644;-79.438;2024-03-23T01:38:59;23.00;25.30
33580;DHT22;19909;43.644;-79.438;2024-03-23T01:41:26;23.10;25.20
33580;DHT22;19909;43.644;-79.438;2024-03-23T01:43:56;23.20;25.20
33580;DHT22;19909;43.644;-79.438;2024-03-23T01:46:22;23.30;25.10
33580;DHT22;19909;43.644;-79.438;2024-03-23T01:48:50;23.40;25.00
33580;DHT22;19909;43.644;-79.438;2024-03-23T01:51:17;23.50;24.90
33580;DHT22;19909;43.644;-79.438;2024-03-23T01:53:43;23.40;24.90
33580;DHT22;19909;43.644;-79.438;2024-03-23T01:56:09;23.40;24.90
33580;DHT22;19909;43.644;-79.438;2024-03-23T01:58:35;23.30;24.80
33580;DHT22;19909;43.644;-79.438;2024-03-23T02:01:02;23.20;24.80
33580;DHT22;19909;43.644;-79.438;2024-03-23T02:03:28;23.10;24.80
33580;DHT22;19909;43.644;-79.438;2024-03-23T02:05:54;23.00;24.80
33580;DHT22;19909;43.644;-79.438;2024-03-23T02:08:23;22.90;24.80
33580;DHT22;19909;43.644;-79.438;2024-03-23T02:10:50;22.80;24.90
33580;DHT22;19909;43.644;-79.438;2024-03-23T02:13:18;22.80;24.90
33580;DHT22;19909;43.644;-79.438;2024-03-23T02:15:45;22.80;24.90
33580;DHT22;19909;43.644;-79.438;2024-03-23T02:18:15;22.80;24.80
33580;DHT22;19909;43.644;-79.438;2024-03-23T02:20:41;22.90;24.90
33580;DHT22;19909;43.644;-79.438;2024-03-23T02:23:15;23.00;24.80
33580;DHT22;19909;43.644;-79.438;2024-03-23T02:25:42;23.10;24.80
33580;DHT22;19909;43.644;-79.438;2024-03-23T02:28:08;23.20;24.80
33580;DHT22;19909;43.644;-79.438;2024-03-23T02:30:34;23.30;24.70
33580;DHT22;19909;43.644;-79.438;2024-03-23T02:33:01;23.30;24.70
33580;DHT22;19909;43.644;-79.438;2024-03-23T02:35:28;23.30;24.70
33580;DHT22;19909;43.644;-79.438;2024-03-23T02:37:54;23.20;24.60
33580;DHT22;19909;43.644;-79.438;2024-03-23T02:40:23;23.20;24.60
33580;DHT22;19909;43.644;-79.438;2024-03-23T02:42:50;23.10;24.60
33580;DHT22;19909;43.644;-79.438;2024-03-23T02:45:16;22.90;24.60
33580;DHT22;19909;43.644;-79.438;2024-03-23T02:47:43;22.90;24.70
33580;DHT22;19909;43.644;-79.438;2024-03-23T02:50:09;22.80;24.80
33580;DHT22;19909;43.644;-79.438;2024-03-23T02:52:36;22.70;24.80
33580;DHT22;19909;43.644;-79.438;2024-03-23T02:55:05;22.70;24.80
33580;DHT22;19909;43.644;-79.438;2024-03-23T02:57:35;22.70;24.80
33580;DHT22;19909;43.644;-79.438;2024-03-23T03:00:01;22.80;25.30
33580;DHT22;19909;43.644;-79.438;2024-03-23T03:02:28;22.80;24.70
33580;DHT22;19909;43.644;-79.438;2024-03-23T03:04:54;23.00;24.70
33580;DHT22;19909;43.644;-79.438;2024-03-23T03:07:20;23.10;24.70
33580;DHT22;19909;43.644;-79.438;2024-03-23T03:09:47;23.10;24.60
33580;DHT22;19909;43.644;-79.438;2024-03-23T03:12:13;23.30;24.60
33580;DHT22;19909;43.644;-79.438;2024-03-23T03:14:45;23.30;24.50
33580;DHT22;19909;43.644;-79.438;2024-03-23T03:17:12;23.30;24.50
33580;DHT22;19909;43.644;-79.438;2024-03-23T03:19:38;23.20;24.50
33580;DHT22;19909;43.644;-79.438;2024-03-23T03:22:04;23.20;24.50
33580;DHT22;19909;43.644;-79.438;2024-03-23T03:24:30;23.10;24.50
33580;DHT22;19909;43.644;-79.438;2024-03-23T03:26:57;23.00;24.50
33580;DHT22;19909;43.644;-79.438;2024-03-23T03:29:26;22.90;24.60
33580;DHT22;19909;43.644;-79.438;2024-03-23T03:31:52;22.80;24.60
33580;DHT22;19909;43.644;-79.438;2024-03-23T03:34:18;22.70;24.60
33580;DHT22;19909;43.644;-79.438;2024-03-23T03:36:44;22.80;24.70
33580;DHT22;19909;43.644;-79.438;2024-03-23T03:39:10;22.80;24.70
33580;DHT22;19909;43.644;-79.438;2024-03-23T03:41:38;22.90;24.70
33580;DHT22;19909;43.644;-79.438;2024-03-23T03:44:04;22.90;24.60
33580;DHT22;19909;43.644;-79.438;2024-03-23T03:46:31;23.00;24.60
33580;DHT22;19909;43.644;-79.438;2024-03-23T03:48:58;23.10;24.50
33580;DHT22;19909;43.644;-79.438;2024-03-23T03:51:25;23.30;24.50
33580;DHT22;19909;43.644;-79.438;2024-03-23T03:53:51;23.40;24.50
33580;DHT22;19909;43.644;-79.438;2024-03-23T03:56:18;23.50;24.40
33580;DHT22;19909;43.644;-79.438;2024-03-23T03:58:44;23.60;24.30
33580;DHT22;19909;43.644;-79.438;2024-03-23T04:01:10;23.70;24.40
33580;DHT22;19909;43.644;-79.438;2024-03-23T04:03:36;23.60;24.20
33580;DHT22;19909;43.644;-79.438;2024-03-23T04:06:03;23.60;24.30
33580;DHT22;19909;43.644;-79.438;2024-03-23T04:08:30;23.50;24.20
33580;DHT22;19909;43.644;-79.438;2024-03-23T04:10:56;23.40;24.30
33580;DHT22;19909;43.644;-79.438;2024-03-23T04:13:22;23.30;24.30
33580;DHT22;19909;43.644;-79.438;2024-03-23T04:15:48;23.20;24.30
33580;DHT22;19909;43.644;-79.438;2024-03-23T04:18:15;23.10;24.40
33580;DHT22;19909;43.644;-79.438;2024-03-23T04:20:42;23.10;24.40
33580;DHT22;19909;43.644;-79.438;2024-03-23T04:23:08;23.10;24.40
33580;DHT22;19909;43.644;-79.438;2024-03-23T04:25:35;23.10;24.40
33580;DHT22;19909;43.644;-79.438;2024-03-23T04:28:01;23.20;24.30
33580;DHT22;19909;43.644;-79.438;2024-03-23T04:30:28;23.30;24.30
33580;DHT22;19909;43.644;-79.438;2024-03-23T04:32:55;23.40;24.30
33580;DHT22;19909;43.644;-79.438;2024-03-23T04:35:22;23.50;24.20
33580;DHT22;19909;43.644;-79.438;2024-03-23T04:37:51;23.60;24.20
33580;DHT22;19909;43.644;-79.438;2024-03-23T04:40:22;23.70;24.10
33580;DHT22;19909;43.644;-79.438;2024-03-23T04:42:48;23.70;24.00
33580;DHT22;19909;43.644;-79.438;2024-03-23T04:45:14;23.80;24.00
33580;DHT22;19909;43.644;-79.438;2024-03-23T04:47:41;23.80;24.50
33580;DHT22;19909;43.644;-79.438;2024-03-23T04:50:07;23.70;24.10
33580;DHT22;19909;43.644;-79.438;2024-03-23T04:52:33;23.60;24.10
33580;DHT22;19909;43.644;-79.438;2024-03-23T04:54:59;23.50;24.10
33580;DHT22;19909;43.644;-79.438;2024-03-23T04:57:25;23.30;24.10
33580;DHT22;19909;43.644;-79.438;2024-03-23T04:59:52;23.20;24.20
33580;DHT22;19909;43.644;-79.438;2024-03-23T05:02:18;23.20;24.20
33580;DHT22;19909;43.644;-79.438;2024-03-23T05:04:45;23.20;24.30
33580;DHT22;19909;43.644;-79.438;2024-03-23T05:07:11;23.20;24.30
33580;DHT22;19909;43.644;-79.438;2024-03-23T05:09:38;23.20;24.30
33580;DHT22;19909;43.644;-79.438;2024-03-23T05:12:04;23.30;24.20
33580;DHT22;19909;43.644;-79.438;2024-03-23T05:14:30;23.40;24.10
33580;DHT22;19909;43.644;-79.438;2024-03-23T05:16:56;23.50;24.10
33580;DHT22;19909;43.644;-79.438;2024-03-23T05:19:22;23.50;24.00
33580;DHT22;19909;43.644;-79.438;2024-03-23T05:21:49;23.70;24.00
33580;DHT22;19909;43.644;-79.438;2024-03-23T05:24:15;23.70;23.90
33580;DHT22;19909;43.644;-79.438;2024-03-23T05:26:42;23.80;23.90
33580;DHT22;19909;43.644;-79.438;2024-03-23T05:29:08;23.80;23.80
33580;DHT22;19909;43.644;-79.438;2024-03-23T05:31:39;23.80;23.90
33580;DHT22;19909;43.644;-79.438;2024-03-23T05:34:07;23.80;24.00
33580;DHT22;19909;43.644;-79.438;2024-03-23T05:36:34;23.70;24.00
33580;DHT22;19909;43.644;-79.438;2024-03-23T05:39:02;23.50;23.90
33580;DHT22;19909;43.644;-79.438;2024-03-23T05:41:28;23.40;24.00
33580;DHT22;19909;43.644;-79.438;2024-03-23T05:43:54;23.30;24.00
33580;DHT22;19909;43.644;-79.438;2024-03-23T05:46:21;23.30;24.10
33580;DHT22;19909;43.644;-79.438;2024-03-23T05:48:47;23.30;24.10
33580;DHT22;19909;43.644;-79.438;2024-03-23T05:51:13;23.30;24.10
33580;DHT22;19909;43.644;-79.438;2024-03-23T05:53:39;23.40;24.10
33580;DHT22;19909;43.644;-79.438;2024-03-23T05:56:09;23.40;24.00
33580;DHT22;19909;43.644;-79.438;2024-03-23T05:58:35;23.50;23.90
33580;DHT22;19909;43.644;-79.438;2024-03-23T06:01:02;23.60;23.90
33580;DHT22;19909;43.644;-79.438;2024-03-23T06:03:28;23.70;23.80
33580;DHT22;19909;43.644;-79.438;2024-03-23T06:05:55;23.80;23.80
33580;DHT22;19909;43.644;-79.438;2024-03-23T06:08:22;23.70;23.80
33580;DHT22;19909;43.644;-79.438;2024-03-23T06:10:48;23.70;23.90
33580;DHT22;19909;43.644;-79.438;2024-03-23T06:13:16;23.60;23.90
33580;DHT22;19909;43.644;-79.438;2024-03-23T06:15:44;23.50;23.90
33580;DHT22;19909;43.644;-79.438;2024-03-23T06:18:12;23.40;23.90
33580;DHT22;19909;43.644;-79.438;2024-03-23T06:20:38;23.30;24.00
33580;DHT22;19909;43.644;-79.438;2024-03-23T06:23:05;23.30;24.00
33580;DHT22;19909;43.644;-79.438;2024-03-23T06:25:31;23.30;24.00
33580;DHT22;19909;43.644;-79.438;2024-03-23T06:27:59;23.40;24.00
33580;DHT22;19909;43.644;-79.438;2024-03-23T06:30:27;23.40;23.80
33580;DHT22;19909;43.644;-79.438;2024-03-23T06:32:53;23.50;23.80
33580;DHT22;19909;43.644;-79.438;2024-03-23T06:35:20;23.60;24.30
33580;DHT22;19909;43.644;-79.438;2024-03-23T06:37:46;23.70;23.70
33580;DHT22;19909;43.644;-79.438;2024-03-23T06:40:12;23.80;23.70
33580;DHT22;19909;43.644;-79.438;2024-03-23T06:42:38;23.80;23.60
33580;DHT22;19909;43.644;-79.438;2024-03-23T06:45:06;23.80;23.70
33580;DHT22;19909;43.644;-79.438;2024-03-23T06:47:33;23.70;23.70
33580;DHT22;19909;43.644;-79.438;2024-03-23T06:50:03;23.60;23.80
33580;DHT22;19909;43.644;-79.438;2024-03-23T06:52:30;23.50;23.80
33580;DHT22;19909;43.644;-79.438;2024-03-23T06:54:56;23.30;23.80
33580;DHT22;19909;43.644;-79.438;2024-03-23T06:57:22;23.30;23.90
33580;DHT22;19909;43.644;-79.438;2024-03-23T06:59:49;23.20;23.90
33580;DHT22;19909;43.644;-79.438;2024-03-23T07:02:15;23.20;23.80
33580;DHT22;19909;43.644;-79.438;2024-03-23T07:04:42;23.30;23.90
33580;DHT22;19909;43.644;-79.438;2024-03-23T07:07:08;23.30;23.90
33580;DHT22;19909;43.644;-79.438;2024-03-23T07:09:35;23.40;23.80
33580;DHT22;19909;43.644;-79.438;2024-03-23T07:12:01;23.50;23.70
33580;DHT22;19909;43.644;-79.438;2024-03-23T07:14:27;23.60;23.70
33580;DHT22;19909;43.644;-79.438;2024-03-23T07:16:53;23.70;23.60
33580;DHT22;19909;43.644;-79.438;2024-03-23T07:19:19;23.70;23.60
33580;DHT22;19909;43.644;-79.438;2024-03-23T07:21:46;23.70;23.60
33580;DHT22;19909;43.644;-79.438;2024-03-23T07:24:13;23.70;23.70
33580;DHT22;19909;43.644;-79.438;2024-03-23T07:26:39;23.60;23.70
33580;DHT22;19909;43.644;-79.438;2024-03-23T07:29:07;23.50;23.70
33580;DHT22;19909;43.644;-79.438;2024-03-23T07:31:34;23.40;23.70
33580;DHT22;19909;43.644;-79.438;2024-03-23T07:34:01;23.30;23.80
33580;DHT22;19909;43.644;-79.438;2024-03-23T07:36:27;23.30;23.90
33580;DHT22;19909;43.644;-79.438;2024-03-23T07:38:54;23.20;23.80
33580;DHT22;19909;43.644;-79.438;2024-03-23T07:41:21;23.30;23.90
33580;DHT22;19909;43.644;-79.438;2024-03-23T07:43:48;23.30;23.90
33580;DHT22;19909;43.644;-79.438;2024-03-23T07:46:23;23.40;23.70
33580;DHT22;19909;43.644;-79.438;2024-03-23T07:48:55;23.50;23.70
33580;DHT22;19909;43.644;-79.438;2024-03-23T07:51:23;23.60;23.70
33580;DHT22;19909;43.644;-79.438;2024-03-23T07:53:49;23.70;23.60
33580;DHT22;19909;43.644;-79.438;2024-03-23T07:56:16;23.80;23.60
33580;DHT22;19909;43.644;-79.438;2024-03-23T07:58:44;23.80;23.60
33580;DHT22;19909;43.644;-79.438;2024-03-23T08:01:15;23.80;23.70
33580;DHT22;19909;43.644;-79.438;2024-03-23T08:03:43;23.70;23.60
33580;DHT22;19909;43.644;-79.438;2024-03-23T08:06:20;23.60;23.70
33580;DHT22;19909;43.644;-79.438;2024-03-23T08:08:52;23.50;23.70
33580;DHT22;19909;43.644;-79.438;2024-03-23T08:11:29;23.40;23.70
33580;DHT22;19909;43.644;-79.438;2024-03-23T08:13:56;23.20;23.80
33580;DHT22;19909;43.644;-79.438;2024-03-23T08:16:23;23.20;23.80
33580;DHT22;19909;43.644;-79.438;2024-03-23T08:18:52;23.20;23.80
33580;DHT22;19909;43.644;-79.438;2024-03-23T08:21:19;23.20;23.80
33580;DHT22;19909;43.644;-79.438;2024-03-23T08:23:45;23.30;23.70
33580;DHT22;19909;43.644;-79.438;2024-03-23T08:26:14;23.40;23.60
33580;DHT22;19909;43.644;-79.438;2024-03-23T08:28:41;23.50;23.60
33580;DHT22;19909;43.644;-79.438;2024-03-23T08:31:09;23.60;23.60
33580;DHT22;19909;43.644;-79.438;2024-03-23T08:33:35;23.70;23.50
33580;DHT22;19909;43.644;-79.438;2024-03-23T08:36:03;23.80;23.50
33580;DHT22;19909;43.644;-79.438;2024-03-23T08:38:29;23.80;23.50
33580;DHT22;19909;43.644;-79.438;2024-03-23T08:41:03;23.90;23.50
33580;DHT22;19909;43.644;-79.438;2024-03-23T08:43:32;23.80;23.50
33580;DHT22;19909;43.644;-79.438;2024-03-23T08:46:05;23.70;23.50
33580;DHT22;19909;43.644;-79.438;2024-03-23T08:48:36;23.60;23.60
33580;DHT22;19909;43.644;-79.438;2024-03-23T08:51:07;23.50;23.60
33580;DHT22;19909;43.644;-79.438;2024-03-23T08:53:34;23.40;23.70
33580;DHT22;19909;43.644;-79.438;2024-03-23T08:56:02;23.30;23.70
33580;DHT22;19909;43.644;-79.438;2024-03-23T08:58:30;23.20;23.80
33580;DHT22;19909;43.644;-79.438;2024-03-23T09:01:03;23.20;23.80
33580;DHT22;19909;43.644;-79.438;2024-03-23T09:03:30;23.20;23.80
33580;DHT22;19909;43.644;-79.438;2024-03-23T09:05:56;23.20;23.70
33580;DHT22;19909;43.644;-79.438;2024-03-23T09:08:24;23.30;23.60
33580;DHT22;19909;43.644;-79.438;2024-03-23T09:10:51;23.40;23.50
33580;DHT22;19909;43.644;-79.438;2024-03-23T09:13:18;23.50;23.50
33580;DHT22;19909;43.644;-79.438;2024-03-23T09:15:50;23.60;23.50
33580;DHT22;19909;43.644;-79.438;2024-03-23T09:18:22;23.70;23.40
33580;DHT22;19909;43.644;-79.438;2024-03-23T09:20:48;23.80;23.80
33580;DHT22;19909;43.644;-79.438;2024-03-23T09:23:15;23.80;23.40
33580;DHT22;19909;43.644;-79.438;2024-03-23T09:25:42;23.80;23.40
33580;DHT22;19909;43.644;-79.438;2024-03-23T09:28:08;23.80;23.50
33580;DHT22;19909;43.644;-79.438;2024-03-23T09:30:35;23.70;23.50
33580;DHT22;19909;43.644;-79.438;2024-03-23T09:33:03;23.60;23.50
33580;DHT22;19909;43.644;-79.438;2024-03-23T09:35:29;23.50;23.60
33580;DHT22;19909;43.644;-79.438;2024-03-23T09:37:56;23.40;23.60
33580;DHT22;19909;43.644;-79.438;2024-03-23T09:40:23;23.30;23.60
33580;DHT22;19909;43.644;-79.438;2024-03-23T09:42:52;23.20;23.70
33580;DHT22;19909;43.644;-79.438;2024-03-23T09:45:23;23.20;23.70
33580;DHT22;19909;43.644;-79.438;2024-03-23T09:47:51;23.20;23.70
33580;DHT22;19909;43.644;-79.438;2024-03-23T09:50:19;23.20;23.60
33580;DHT22;19909;43.644;-79.438;2024-03-23T09:52:46;23.30;23.50
33580;DHT22;19909;43.644;-79.438;2024-03-23T09:55:12;23.40;23.40
33580;DHT22;19909;43.644;-79.438;2024-03-23T09:57:40;23.50;23.40
33580;DHT22;19909;43.644;-79.438;2024-03-23T10:00:07;23.60;23.40
33580;DHT22;19909;43.644;-79.438;2024-03-23T10:02:37;23.70;23.30
33580;DHT22;19909;43.644;-79.438;2024-03-23T10:05:04;23.80;23.30
33580;DHT22;19909;43.644;-79.438;2024-03-23T10:07:31;23.80;23.30
33580;DHT22;19909;43.644;-79.438;2024-03-23T10:09:57;23.80;23.40
33580;DHT22;19909;43.644;-79.438;2024-03-23T10:12:24;23.70;23.40
33580;DHT22;19909;43.644;-79.438;2024-03-23T10:14:51;23.60;23.40
33580;DHT22;19909;43.644;-79.438;2024-03-23T10:17:22;23.50;23.40
33580;DHT22;19909;43.644;-79.438;2024-03-23T10:19:53;23.40;23.50
33580;DHT22;19909;43.644;-79.438;2024-03-23T10:22:22;23.30;23.50
33580;DHT22;19909;43.644;-79.438;2024-03-23T10:24:48;23.20;23.60
33580;DHT22;19909;43.644;-79.438;2024-03-23T10:27:21;23.20;23.50
33580;DHT22;19909;43.644;-79.438;2024-03-23T10:29:50;23.30;23.50
33580;DHT22;19909;43.644;-79.438;2024-03-23T10:32:17;23.30;23.50
33580;DHT22;19909;43.644;-79.438;2024-03-23T10:34:44;23.40;23.30
33580;DHT22;19909;43.644;-79.438;2024-03-23T10:37:11;23.50;23.30
33580;DHT22;19909;43.644;-79.438;2024-03-23T10:39:39;23.60;23.30
33580;DHT22;19909;43.644;-79.438;2024-03-23T10:42:08;23.70;23.20
33580;DHT22;19909;43.644;-79.438;2024-03-23T10:44:36;23.70;23.10
33580;DHT22;19909;43.644;-79.438;2024-03-23T10:47:05;23.80;23.10
33580;DHT22;19909;43.644;-79.438;2024-03-23T10:49:33;23.80;23.20
33580;DHT22;19909;43.644;-79.438;2024-03-23T10:52:04;23.70;23.20
33580;DHT22;19909;43.644;-79.438;2024-03-23T10:54:31;23.70;23.30
33580;DHT22;19909;43.644;-79.438;2024-03-23T10:59:31;23.50;23.30
33580;DHT22;19909;43.644;-79.438;2024-03-23T11:01:58;23.30;23.30
33580;DHT22;19909;43.644;-79.438;2024-03-23T11:04:36;23.20;23.30
33580;DHT22;19909;43.644;-79.438;2024-03-23T11:09:51;23.10;23.60
33580;DHT22;19909;43.644;-79.438;2024-03-23T11:15:05;23.10;23.50
33580;DHT22;19909;43.644;-79.438;2024-03-23T11:17:32;23.10;23.40
33580;DHT22;19909;43.644;-79.438;2024-03-23T11:20:03;23.20;23.20
33580;DHT22;19909;43.644;-79.438;2024-03-23T11:22:39;23.30;23.20
33580;DHT22;19909;43.644;-79.438;2024-03-23T11:25:19;23.40;23.20
33580;DHT22;19909;43.644;-79.438;2024-03-23T11:28:12;23.60;23.20
33580;DHT22;19909;43.644;-79.438;2024-03-23T11:30:38;23.70;23.10
33580;DHT22;19909;43.644;-79.438;2024-03-23T11:33:06;23.70;23.00
33580;DHT22;19909;43.644;-79.438;2024-03-23T11:35:37;23.80;23.00
33580;DHT22;19909;43.644;-79.438;2024-03-23T11:40:36;23.70;23.20
33580;DHT22;19909;43.644;-79.438;2024-03-23T11:43:04;23.50;23.20
33580;DHT22;19909;43.644;-79.438;2024-03-23T11:45:36;23.40;23.20
33580;DHT22;19909;43.644;-79.438;2024-03-23T11:48:12;23.30;23.30
33580;DHT22;19909;43.644;-79.438;2024-03-23T11:50:41;23.20;23.30
33580;DHT22;19909;43.644;-79.438;2024-03-23T11:55:50;23.20;23.30
33580;DHT22;19909;43.644;-79.438;2024-03-23T11:58:19;23.20;23.30
33580;DHT22;19909;43.644;-79.438;2024-03-23T12:00:57;23.30;23.10
33580;DHT22;19909;43.644;-79.438;2024-03-23T12:03:25;23.40;23.10
33580;DHT22;19909;43.644;-79.438;2024-03-23T12:05:54;23.50;23.00
33580;DHT22;19909;43.644;-79.438;2024-03-23T12:08:32;23.60;23.00
33580;DHT22;19909;43.644;-79.438;2024-03-23T12:13:36;23.70;23.00
33580;DHT22;19909;43.644;-79.438;2024-03-23T12:18:42;23.50;23.00
33580;DHT22;19909;43.644;-79.438;2024-03-23T12:21:09;23.40;23.00
33580;DHT22;19909;43.644;-79.438;2024-03-23T12:23:36;23.40;23.00
33580;DHT22;19909;43.644;-79.438;2024-03-23T12:26:05;23.20;23.00
33580;DHT22;19909;43.644;-79.438;2024-03-23T12:28:32;23.10;23.00
33580;DHT22;19909;43.644;-79.438;2024-03-23T12:30:59;23.10;23.10
33580;DHT22;19909;43.644;-79.438;2024-03-23T12:33:25;23.00;23.10
33580;DHT22;19909;43.644;-79.438;2024-03-23T12:35:52;22.90;23.20
33580;DHT22;19909;43.644;-79.438;2024-03-23T12:38:19;22.80;23.10
33580;DHT22;19909;43.644;-79.438;2024-03-23T12:40:52;22.80;23.20
33580;DHT22;19909;43.644;-79.438;2024-03-23T12:43:19;22.80;23.30
33580;DHT22;19909;43.644;-79.438;2024-03-23T12:45:49;22.80;23.20
33580;DHT22;19909;43.644;-79.438;2024-03-23T12:48:16;22.90;23.20
33580;DHT22;19909;43.644;-79.438;2024-03-23T12:50:43;22.90;23.10
33580;DHT22;19909;43.644;-79.438;2024-03-23T12:53:13;23.10;23.10
33580;DHT22;19909;43.644;-79.438;2024-03-23T12:55:39;23.20;23.10
33580;DHT22;19909;43.644;-79.438;2024-03-23T12:58:05;23.30;23.10
33580;DHT22;19909;43.644;-79.438;2024-03-23T13:00:33;23.30;23.10
33580;DHT22;19909;43.644;-79.438;2024-03-23T13:02:59;23.30;23.10
33580;DHT22;19909;43.644;-79.438;2024-03-23T13:05:26;23.30;23.10
33580;DHT22;19909;43.644;-79.438;2024-03-23T13:07:57;23.10;23.10
33580;DHT22;19909;43.644;-79.438;2024-03-23T13:10:25;23.10;23.10
33580;DHT22;19909;43.644;-79.438;2024-03-23T13:12:52;22.90;23.10
33580;DHT22;19909;43.644;-79.438;2024-03-23T13:15:19;22.90;23.20
33580;DHT22;19909;43.644;-79.438;2024-03-23T13:17:46;22.80;23.30
33580;DHT22;19909;43.644;-79.438;2024-03-23T13:20:12;22.70;23.20
33580;DHT22;19909;43.644;-79.438;2024-03-23T13:22:40;22.60;23.20
33580;DHT22;19909;43.644;-79.438;2024-03-23T13:25:07;22.60;23.20
33580;DHT22;19909;43.644;-79.438;2024-03-23T13:27:35;22.50;23.20
33580;DHT22;19909;43.644;-79.438;2024-03-23T13:30:01;22.40;23.20
33580;DHT22;19909;43.644;-79.438;2024-03-23T13:32:29;22.30;23.30
33580;DHT22;19909;43.644;-79.438;2024-03-23T13:34:56;22.20;23.40
33580;DHT22;19909;43.644;-79.438;2024-03-23T13:37:22;22.20;23.40
33580;DHT22;19909;43.644;-79.438;2024-03-23T13:39:48;22.10;23.40
33580;DHT22;19909;43.644;-79.438;2024-03-23T13:42:15;22.10;23.50
33580;DHT22;19909;43.644;-79.438;2024-03-23T13:44:42;22.00;23.50
33580;DHT22;19909;43.644;-79.438;2024-03-23T13:47:09;21.90;23.50
33580;DHT22;19909;43.644;-79.438;2024-03-23T13:49:35;21.90;23.60
33580;DHT22;19909;43.644;-79.438;2024-03-23T13:52:02;21.80;23.70
33580;DHT22;19909;43.644;-79.438;2024-03-23T13:54:28;21.80;23.70
33580;DHT22;19909;43.644;-79.438;2024-03-23T13:56:55;21.90;23.80
33580;DHT22;19909;43.644;-79.438;2024-03-23T13:59:23;21.90;23.70
33580;DHT22;19909;43.644;-79.438;2024-03-23T14:01:51;22.00;23.70
33580;DHT22;19909;43.644;-79.438;2024-03-23T14:04:18;22.10;23.60
33580;DHT22;19909;43.644;-79.438;2024-03-23T14:06:48;22.30;23.50
33580;DHT22;19909;43.644;-79.438;2024-03-23T14:09:15;22.40;23.50
33580;DHT22;19909;43.644;-79.438;2024-03-23T14:11:48;22.40;23.50
33580;DHT22;19909;43.644;-79.438;2024-03-23T14:14:16;22.40;23.50
33580;DHT22;19909;43.644;-79.438;2024-03-23T14:16:43;22.40;23.60
33580;DHT22;19909;43.644;-79.438;2024-03-23T14:19:10;22.30;23.60
33580;DHT22;19909;43.644;-79.438;2024-03-23T14:21:36;22.30;23.60
33580;DHT22;19909;43.644;-79.438;2024-03-23T14:24:02;22.20;23.50
33580;DHT22;19909;43.644;-79.438;2024-03-23T14:26:29;22.20;23.60
33580;DHT22;19909;43.644;-79.438;2024-03-23T14:28:56;22.10;23.60
33580;DHT22;19909;43.644;-79.438;2024-03-23T14:31:22;22.00;23.60
33580;DHT22;19909;43.644;-79.438;2024-03-23T14:33:49;21.90;23.60
33580;DHT22;19909;43.644;-79.438;2024-03-23T14:36:17;21.90;23.70
33580;DHT22;19909;43.644;-79.438;2024-03-23T14:38:50;21.80;23.70
33580;DHT22;19909;43.644;-79.438;2024-03-23T14:41:16;21.80;24.40
33580;DHT22;19909;43.644;-79.438;2024-03-23T14:43:42;21.70;23.90
33580;DHT22;19909;43.644;-79.438;2024-03-23T14:46:18;21.80;23.90
33580;DHT22;19909;43.644;-79.438;2024-03-23T14:48:46;21.80;23.90
33580;DHT22;19909;43.644;-79.438;2024-03-23T14:51:12;21.90;23.80
33580;DHT22;19909;43.644;-79.438;2024-03-23T14:53:40;22.00;23.70
33580;DHT22;19909;43.644;-79.438;2024-03-23T14:56:08;22.20;23.70
33580;DHT22;19909;43.644;-79.438;2024-03-23T14:58:41;22.30;23.70
33580;DHT22;19909;43.644;-79.438;2024-03-23T15:01:08;22.40;23.70
33580;DHT22;19909;43.644;-79.438;2024-03-23T15:03:36;22.40;23.70
33580;DHT22;19909;43.644;-79.438;2024-03-23T15:06:06;22.40;23.80
33580;DHT22;19909;43.644;-79.438;2024-03-23T15:08:36;22.40;23.80
33580;DHT22;19909;43.644;-79.438;2024-03-23T15:11:08;22.30;23.90
33580;DHT22;19909;43.644;-79.438;2024-03-23T15:13:36;22.30;23.90
33580;DHT22;19909;43.644;-79.438;2024-03-23T15:16:04;22.20;23.90
33580;DHT22;19909;43.644;-79.438;2024-03-23T15:18:31;22.10;23.90
33580;DHT22;19909;43.644;-79.438;2024-03-23T15:20:59;22.10;23.90
33580;DHT22;19909;43.644;-79.438;2024-03-23T15:23:32;22.00;23.90
33580;DHT22;19909;43.644;-79.438;2024-03-23T15:26:00;21.90;23.90
33580;DHT22;19909;43.644;-79.438;2024-03-23T15:28:26;21.80;23.80
33580;DHT22;19909;43.644;-79.438;2024-03-23T15:31:08;21.80;24.00
33580;DHT22;19909;43.644;-79.438;2024-03-23T15:33:37;21.70;24.00
33580;DHT22;19909;43.644;-79.438;2024-03-23T15:36:06;21.70;24.10
33580;DHT22;19909;43.644;-79.438;2024-03-23T15:38:32;21.70;24.00
33580;DHT22;19909;43.644;-79.438;2024-03-23T15:40:59;21.80;24.10
33580;DHT22;19909;43.644;-79.438;2024-03-23T15:43:26;21.90;24.00
33580;DHT22;19909;43.644;-79.438;2024-03-23T15:45:56;22.10;24.00
33580;DHT22;19909;43.644;-79.438;2024-03-23T15:48:22;22.20;24.00
33580;DHT22;19909;43.644;-79.438;2024-03-23T15:50:59;22.30;23.90
33580;DHT22;19909;43.644;-79.438;2024-03-23T15:53:27;22.50;23.90
33580;DHT22;19909;43.644;-79.438;2024-03-23T15:55:58;22.60;23.90
33580;DHT22;19909;43.644;-79.438;2024-03-23T15:58:25;22.70;23.80
33580;DHT22;19909;43.644;-79.438;2024-03-23T16:01:17;22.80;23.90
33580;DHT22;19909;43.644;-79.438;2024-03-23T16:03:44;22.80;24.00
33580;DHT22;19909;43.644;-79.438;2024-03-23T16:06:10;22.80;24.10
33580;DHT22;19909;43.644;-79.438;2024-03-23T16:08:36;22.60;24.00
33580;DHT22;19909;43.644;-79.438;2024-03-23T16:11:07;22.60;24.10
33580;DHT22;19909;43.644;-79.438;2024-03-23T16:13:35;22.50;24.10
33580;DHT22;19909;43.644;-79.438;2024-03-23T16:16:03;22.40;24.10
33580;DHT22;19909;43.644;-79.438;2024-03-23T16:18:34;22.30;24.10